createdAt,value
2022-12-16T00:00:41.508Z,91.10
2022-12-16T00:03:08.206Z,91.10
2022-12-16T00:05:42.642Z,91.10
2022-12-16T00:08:10.978Z,91.10
2022-12-16T00:10:53.041Z,91.10
2022-12-16T00:13:21.391Z,91.10
2022-12-16T00:15:49.193Z,91.10
2022-12-16T00:18:19.106Z,91.10
2022-12-16T00:20:47.398Z,91.10
2022-12-16T00:23:14.878Z,91.10
2022-12-16T00:25:46.268Z,91.10
2022-12-16T00:28:15.033Z,91.00
2022-12-16T00:30:47.784Z,91.10
2022-12-16T00:33:14.333Z,91.10
2022-12-16T00:35:44.636Z,91.40
2022-12-16T00:38:12.958Z,91.00
2022-12-16T00:40:39.551Z,91.00
2022-12-16T00:43:06.327Z,91.00
2022-12-16T00:45:32.921Z,91.00
2022-12-16T00:47:59.569Z,91.00
2022-12-16T00:50:26.151Z,91.10
2022-12-16T00:52:52.759Z,91.00
2022-12-16T00:55:21.434Z,91.00
2022-12-16T00:57:47.985Z,91.00
2022-12-16T01:00:16.327Z,91.00
2022-12-16T01:02:44.770Z,91.00
2022-12-16T01:05:13.039Z,91.00
2022-12-16T01:07:39.932Z,91.00
2022-12-16T01:10:07.760Z,91.00
2022-12-16T01:12:35.546Z,91.00
2022-12-16T01:15:04.203Z,91.00
2022-12-16T01:17:30.859Z,91.00
2022-12-16T01:19:57.531Z,91.00
2022-12-16T01:22:24.186Z,91.00
2022-12-16T01:24:50.805Z,91.00
2022-12-16T01:27:17.590Z,91.00
2022-12-16T01:29:44.113Z,91.00
2022-12-16T01:32:13.345Z,91.00
2022-12-16T01:34:40.456Z,91.00
2022-12-16T01:37:08.661Z,91.00
2022-12-16T01:39:35.302Z,91.00
2022-12-16T01:42:01.860Z,91.00
2022-12-16T01:44:28.521Z,90.90
2022-12-16T01:47:03.608Z,90.90
2022-12-16T01:49:37.913Z,91.00
2022-12-16T01:52:08.601Z,90.90
2022-12-16T01:54:39.775Z,90.90
2022-12-16T01:57:11.702Z,91.00
2022-12-16T01:59:41.245Z,91.00
2022-12-16T02:02:09.030Z,90.90
2022-12-16T02:04:35.733Z,90.90
2022-12-16T02:07:02.328Z,91.00
2022-12-16T02:09:28.948Z,90.90
2022-12-16T02:12:21.775Z,90.90
2022-12-16T02:15:25.127Z,90.90
2022-12-16T02:18:06.997Z,91.00
2022-12-16T02:20:42.571Z,90.90
2022-12-16T02:23:39.733Z,90.90
2022-12-16T02:26:09.352Z,90.90
2022-12-16T02:29:07.627Z,90.90
2022-12-16T02:31:58.474Z,90.90
2022-12-16T02:34:51.511Z,90.90
2022-12-16T02:37:39.661Z,90.90
2022-12-16T02:40:23.632Z,90.90
2022-12-16T02:43:04.575Z,90.90
2022-12-16T02:45:32.462Z,90.90
2022-12-16T02:47:59.157Z,90.90
2022-12-16T02:50:28.354Z,90.90
2022-12-16T02:52:56.030Z,90.90
2022-12-16T02:55:40.625Z,90.90
2022-12-16T02:58:27.667Z,90.90
2022-12-16T03:01:02.431Z,90.90
2022-12-16T03:03:47.032Z,90.90
2022-12-16T03:06:16.928Z,90.90
2022-12-16T03:08:47.935Z,90.90
2022-12-16T03:11:14.521Z,90.80
2022-12-16T03:13:51.804Z,90.80
2022-12-16T03:16:21.467Z,90.80
2022-12-16T03:18:52.609Z,90.80
2022-12-16T03:21:24.699Z,90.90
2022-12-16T03:24:03.305Z,90.80
2022-12-16T03:26:48.556Z,90.80
2022-12-16T03:29:24.432Z,90.80
2022-12-16T03:32:27.324Z,90.80
2022-12-16T03:35:04.164Z,90.80
2022-12-16T03:37:34.912Z,90.80
2022-12-16T03:40:05.857Z,90.80
2022-12-16T03:42:33.006Z,90.80
2022-12-16T03:44:59.805Z,90.80
2022-12-16T03:47:28.789Z,90.80
2022-12-16T03:49:55.715Z,90.80
2022-12-16T03:52:22.304Z,90.80
2022-12-16T03:54:48.827Z,90.80
2022-12-16T03:57:15.909Z,90.80
2022-12-16T03:59:42.836Z,90.80
2022-12-16T04:02:09.567Z,90.80
2022-12-16T04:04:36.261Z,90.80
2022-12-16T04:07:21.183Z,90.80
2022-12-16T04:09:49.211Z,90.80
2022-12-16T04:12:34.398Z,90.80
2022-12-16T04:15:39.434Z,90.80
2022-12-16T04:18:32.015Z,90.80
2022-12-16T04:21:17.591Z,90.80
2022-12-16T04:24:07.761Z,90.80
2022-12-16T04:26:57.271Z,90.80
2022-12-16T04:29:24.228Z,90.80
2022-12-16T04:31:52.010Z,90.80
2022-12-16T04:34:25.778Z,90.80
2022-12-16T04:37:18.990Z,90.80
2022-12-16T04:40:04.353Z,90.80
2022-12-16T04:42:50.656Z,90.80
2022-12-16T04:45:36.243Z,90.80
2022-12-16T04:48:21.803Z,90.80
2022-12-16T04:51:07.104Z,90.80
2022-12-16T04:53:52.413Z,90.80
2022-12-16T04:56:37.593Z,90.80
2022-12-16T04:59:22.979Z,90.80
2022-12-16T05:02:08.304Z,90.80
2022-12-16T05:04:53.685Z,90.80
2022-12-16T05:07:39.147Z,90.80
2022-12-16T05:10:25.528Z,90.80
2022-12-16T05:13:13.834Z,90.80
2022-12-16T05:15:59.491Z,90.80
2022-12-16T05:18:44.499Z,90.70
2022-12-16T05:21:29.902Z,90.70
2022-12-16T05:24:15.179Z,90.70
2022-12-16T05:27:00.534Z,90.80
2022-12-16T05:29:45.863Z,90.80
2022-12-16T05:32:31.142Z,90.70
2022-12-16T05:35:16.393Z,90.70
2022-12-16T05:38:01.752Z,90.70
2022-12-16T05:40:47.173Z,90.70
2022-12-16T05:43:32.961Z,90.70
2022-12-16T05:46:18.365Z,90.70
2022-12-16T05:49:03.532Z,90.70
2022-12-16T05:51:48.738Z,91.10
2022-12-16T05:54:34.088Z,90.70
2022-12-16T05:57:19.396Z,90.70
2022-12-16T06:00:04.739Z,90.70
2022-12-16T06:02:50.359Z,90.70
2022-12-16T06:05:35.415Z,90.70
2022-12-16T06:08:20.740Z,90.70
2022-12-16T06:11:05.915Z,90.70
2022-12-16T06:13:51.239Z,90.70
2022-12-16T06:16:36.853Z,90.70
2022-12-16T06:19:22.360Z,90.70
2022-12-16T06:22:07.698Z,90.70
2022-12-16T06:24:52.904Z,90.70
2022-12-16T06:27:38.174Z,90.80
2022-12-16T06:30:23.603Z,90.70
2022-12-16T06:33:08.930Z,90.70
2022-12-16T06:35:54.350Z,90.70
2022-12-16T06:38:39.524Z,90.70
2022-12-16T06:41:24.806Z,90.70
2022-12-16T06:44:09.973Z,90.70
2022-12-16T06:46:55.463Z,90.70
2022-12-16T06:49:40.838Z,90.70
2022-12-16T06:52:26.097Z,90.70
2022-12-16T06:55:11.476Z,90.70
2022-12-16T06:57:56.742Z,90.70
2022-12-16T07:00:42.084Z,90.80
2022-12-16T07:03:31.445Z,91.00
2022-12-16T07:06:19.118Z,91.10
2022-12-16T07:09:04.443Z,91.10
2022-12-16T07:11:49.880Z,91.20
2022-12-16T07:14:35.160Z,91.20
2022-12-16T07:17:20.449Z,91.40
2022-12-16T07:20:05.853Z,91.40
2022-12-16T07:22:58.472Z,91.50
2022-12-16T07:25:47.784Z,91.50
2022-12-16T07:28:33.310Z,91.60
2022-12-16T07:31:18.701Z,91.60
2022-12-16T07:34:04.100Z,91.70
2022-12-16T07:36:49.512Z,91.80
2022-12-16T07:39:34.736Z,91.80
2022-12-16T07:42:20.065Z,91.90
2022-12-16T07:45:05.223Z,91.90
2022-12-16T07:47:50.708Z,92.00
2022-12-16T07:50:36.268Z,92.00
2022-12-16T07:53:22.335Z,92.20
2022-12-16T07:56:07.314Z,92.30
2022-12-16T07:58:52.573Z,92.10
2022-12-16T08:01:40.531Z,91.90
2022-12-16T08:04:25.673Z,91.80
2022-12-16T08:07:11.028Z,91.70
2022-12-16T08:09:56.067Z,91.70
2022-12-16T08:12:41.386Z,91.50
2022-12-16T08:15:26.687Z,91.70
2022-12-16T08:18:12.546Z,91.60
2022-12-16T08:20:57.832Z,91.70
2022-12-16T08:23:43.390Z,91.70
2022-12-16T08:26:28.951Z,91.70
2022-12-16T08:29:42.383Z,91.60
2022-12-16T08:32:19.651Z,91.60
2022-12-16T08:35:05.000Z,91.60
2022-12-16T08:37:50.495Z,91.60
2022-12-16T08:40:38.721Z,91.50
2022-12-16T08:43:23.740Z,91.50
2022-12-16T08:46:17.984Z,91.50
2022-12-16T08:49:03.447Z,91.70
2022-12-16T08:51:48.684Z,91.90
2022-12-16T08:54:33.997Z,92.00
2022-12-16T08:57:19.662Z,92.10
2022-12-16T09:00:05.027Z,92.20
2022-12-16T09:02:50.340Z,92.20
2022-12-16T09:05:36.295Z,92.20
2022-12-16T09:08:23.161Z,92.30
2022-12-16T09:11:08.637Z,92.30
2022-12-16T09:13:53.898Z,92.30
2022-12-16T09:16:40.241Z,92.30
2022-12-16T09:19:25.896Z,92.40
2022-12-16T09:22:10.947Z,92.40
2022-12-16T09:24:56.313Z,92.40
2022-12-16T09:27:41.648Z,92.40
2022-12-16T09:30:27.969Z,92.40
2022-12-16T09:33:13.065Z,92.40
2022-12-16T09:35:58.385Z,92.40
2022-12-16T09:38:43.870Z,92.50
2022-12-16T09:41:53.727Z,92.50
2022-12-16T09:44:52.847Z,92.50
2022-12-16T09:47:47.223Z,92.50
2022-12-16T09:50:40.386Z,92.60
2022-12-16T09:53:31.458Z,92.50
2022-12-16T09:56:19.076Z,92.50
2022-12-16T09:59:13.431Z,92.60
2022-12-16T10:01:59.944Z,92.60
2022-12-16T10:04:45.781Z,92.50
2022-12-16T10:07:40.592Z,92.40
2022-12-16T10:10:55.573Z,92.30
2022-12-16T10:14:19.402Z,92.30
2022-12-16T10:17:13.491Z,92.20
2022-12-16T10:20:13.828Z,92.20
2022-12-16T10:22:59.010Z,92.10
2022-12-16T10:25:50.908Z,92.10
2022-12-16T10:28:42.491Z,92.00
2022-12-16T10:31:33.936Z,92.00
2022-12-16T10:34:19.347Z,92.00
2022-12-16T10:37:12.417Z,91.90
2022-12-16T10:40:06.163Z,91.90
2022-12-16T10:42:59.011Z,91.90
2022-12-16T10:45:54.279Z,91.80
2022-12-16T10:48:53.569Z,91.80
2022-12-16T10:51:43.201Z,91.80
2022-12-16T10:55:00.415Z,91.70
2022-12-16T10:57:49.292Z,91.70
2022-12-16T11:00:37.108Z,91.70
2022-12-16T11:03:40.468Z,91.70
2022-12-16T11:06:26.830Z,91.70
2022-12-16T11:09:31.915Z,91.60
2022-12-16T11:12:32.861Z,91.60
2022-12-16T11:15:29.242Z,91.50
2022-12-16T11:18:21.413Z,91.50
2022-12-16T11:21:29.143Z,91.50
2022-12-16T11:24:34.191Z,91.40
2022-12-16T11:27:22.166Z,91.40
2022-12-16T11:30:12.310Z,91.40
2022-12-16T11:33:02.347Z,91.40
2022-12-16T11:35:50.675Z,91.30
2022-12-16T11:39:03.608Z,91.30
2022-12-16T11:41:52.885Z,91.30
2022-12-16T11:44:43.485Z,91.20
2022-12-16T11:47:41.573Z,91.20
2022-12-16T11:50:32.067Z,91.10
2022-12-16T11:53:19.492Z,91.20
2022-12-16T11:56:12.634Z,91.10
2022-12-16T11:59:04.707Z,91.20
2022-12-16T12:02:05.785Z,91.20
2022-12-16T12:04:51.266Z,91.10
2022-12-16T12:07:44.635Z,91.10
2022-12-16T12:10:30.896Z,91.10
2022-12-16T12:13:24.363Z,91.10
2022-12-16T12:16:21.498Z,91.10
2022-12-16T12:19:18.125Z,91.10
2022-12-16T12:22:15.386Z,91.10
2022-12-16T12:25:20.505Z,91.10
2022-12-16T12:28:23.833Z,91.10
2022-12-16T12:31:39.111Z,91.10
2022-12-16T12:34:43.935Z,91.10
2022-12-16T12:38:07.587Z,91.10
2022-12-16T12:40:55.859Z,91.10
2022-12-16T12:44:10.006Z,91.10
2022-12-16T12:46:58.006Z,91.10
2022-12-16T12:50:08.936Z,91.10
2022-12-16T12:53:32.414Z,91.00
2022-12-16T12:56:47.696Z,91.00
2022-12-16T12:59:39.917Z,91.10
2022-12-16T13:02:32.157Z,91.00
2022-12-16T13:05:24.047Z,91.00
2022-12-16T13:08:09.771Z,91.00
2022-12-16T13:10:57.475Z,91.10
2022-12-16T13:13:43.016Z,91.00
2022-12-16T13:16:31.997Z,91.00
2022-12-16T13:20:02.591Z,91.40
2022-12-16T13:22:48.941Z,91.00
2022-12-16T13:26:07.661Z,91.00
2022-12-16T13:28:55.950Z,91.00
2022-12-16T13:31:42.104Z,91.00
2022-12-16T13:34:33.425Z,91.00
2022-12-16T13:37:26.964Z,91.00
2022-12-16T13:40:25.011Z,91.00
2022-12-16T13:43:12.531Z,91.00
2022-12-16T13:46:03.779Z,91.00
2022-12-16T13:48:58.889Z,91.10
2022-12-16T13:51:56.021Z,91.20
2022-12-16T13:54:54.673Z,91.20
2022-12-16T13:57:42.167Z,91.30
2022-12-16T14:00:43.060Z,91.30
2022-12-16T14:03:40.431Z,91.40
2022-12-16T14:06:35.332Z,91.40
2022-12-16T14:09:23.147Z,91.40
2022-12-16T14:12:28.262Z,91.50
2022-12-16T14:15:24.211Z,91.50
2022-12-16T14:18:31.532Z,91.70
2022-12-16T14:21:20.970Z,91.70
2022-12-16T14:24:14.185Z,91.70
2022-12-16T14:27:02.585Z,91.80
2022-12-16T14:29:50.185Z,91.70
2022-12-16T14:32:52.901Z,91.80
2022-12-16T14:35:40.893Z,91.90
2022-12-16T14:38:45.750Z,91.90
2022-12-16T14:41:40.589Z,91.90
2022-12-16T14:44:44.833Z,91.90
2022-12-16T14:47:38.324Z,92.00
2022-12-16T14:50:40.973Z,92.00
2022-12-16T14:53:34.386Z,92.00
2022-12-16T14:56:49.253Z,92.00
2022-12-16T14:59:37.730Z,91.90
2022-12-16T15:02:47.125Z,91.00
2022-12-16T15:05:32.834Z,90.20
2022-12-16T15:08:18.776Z,90.10
2022-12-16T15:11:04.523Z,90.10
2022-12-16T15:13:52.237Z,90.10
2022-12-16T15:16:45.911Z,90.00
2022-12-16T15:19:38.057Z,90.00
2022-12-16T15:22:23.548Z,89.80
2022-12-16T15:25:09.087Z,89.60
2022-12-16T15:27:56.614Z,89.40
2022-12-16T15:30:59.441Z,89.30
2022-12-16T15:33:52.872Z,89.00
2022-12-16T15:37:14.866Z,88.90
2022-12-16T15:40:00.682Z,88.80
2022-12-16T15:42:49.096Z,88.60
2022-12-16T15:45:45.461Z,88.50
2022-12-16T15:48:41.648Z,88.30
2022-12-16T15:51:49.077Z,88.20
2022-12-16T15:54:39.939Z,88.10
2022-12-16T15:57:48.359Z,88.00
2022-12-16T16:00:51.382Z,87.90
2022-12-16T16:03:49.015Z,87.80
2022-12-16T16:06:42.685Z,87.80
2022-12-16T16:09:32.719Z,87.80
2022-12-16T16:12:17.972Z,87.70
2022-12-16T16:15:03.350Z,87.60
2022-12-16T16:17:48.503Z,87.60
2022-12-16T16:20:35.692Z,87.60
2022-12-16T16:23:21.117Z,87.80
2022-12-16T16:26:07.252Z,88.00
2022-12-16T16:28:53.284Z,88.50
2022-12-16T16:31:38.606Z,89.00
2022-12-16T16:34:24.125Z,89.50
2022-12-16T16:37:12.977Z,89.80
2022-12-16T16:39:58.381Z,90.00
2022-12-16T16:42:43.778Z,90.10
2022-12-16T16:45:29.950Z,90.20
2022-12-16T16:48:28.789Z,90.30
2022-12-16T16:51:15.780Z,90.40
2022-12-16T16:54:01.153Z,90.50
2022-12-16T16:56:49.085Z,90.50
2022-12-16T16:59:34.425Z,90.50
2022-12-16T17:02:19.762Z,90.50
2022-12-16T17:05:04.958Z,90.60
2022-12-16T17:07:53.835Z,90.50
2022-12-16T17:10:39.098Z,90.50
2022-12-16T17:13:24.685Z,90.50
2022-12-16T17:16:09.947Z,90.50
2022-12-16T17:18:55.434Z,90.50
2022-12-16T17:21:40.752Z,90.50
2022-12-16T17:24:26.256Z,90.50
2022-12-16T17:27:11.740Z,90.50
2022-12-16T17:30:04.633Z,90.50
2022-12-16T17:32:50.093Z,90.50
2022-12-16T17:35:35.361Z,90.50
2022-12-16T17:38:20.745Z,90.60
2022-12-16T17:41:03.739Z,90.50
2022-12-16T17:43:48.786Z,90.50
2022-12-16T17:46:34.118Z,90.50
2022-12-16T17:49:19.264Z,90.50
2022-12-16T17:52:04.623Z,90.50
2022-12-16T17:54:49.974Z,90.50
2022-12-16T17:57:35.277Z,90.50
2022-12-16T18:00:20.726Z,90.50
2022-12-16T18:03:06.208Z,90.50
2022-12-16T18:05:51.441Z,90.50
2022-12-16T18:08:36.955Z,90.50
2022-12-16T18:11:22.217Z,90.50
2022-12-16T18:14:07.716Z,90.50
2022-12-16T18:16:53.102Z,90.50
2022-12-16T18:19:38.495Z,90.50
2022-12-16T18:22:24.004Z,90.50
2022-12-16T18:25:09.019Z,90.70
2022-12-16T18:27:55.372Z,90.80
2022-12-16T18:30:40.719Z,90.80
2022-12-16T18:33:25.873Z,90.90
2022-12-16T18:36:11.301Z,91.10
2022-12-16T18:38:56.680Z,91.10
2022-12-16T18:41:42.091Z,91.20
2022-12-16T18:44:30.703Z,91.30
2022-12-16T18:47:16.079Z,91.40
2022-12-16T18:50:01.547Z,91.50
2022-12-16T18:52:46.709Z,91.70
2022-12-16T18:55:32.054Z,91.80
2022-12-16T18:58:42.663Z,91.90
2022-12-16T19:01:28.437Z,92.00
2022-12-16T19:04:14.954Z,92.00
2022-12-16T19:07:00.539Z,92.00
2022-12-16T19:09:45.859Z,92.10
2022-12-16T19:12:31.244Z,92.20
2022-12-16T19:15:16.553Z,92.30
2022-12-16T19:18:01.940Z,92.20
2022-12-16T19:20:47.434Z,92.30
2022-12-16T19:23:34.155Z,92.40
2022-12-16T19:26:19.853Z,92.50
2022-12-16T19:29:05.426Z,92.60
2022-12-16T19:32:04.716Z,92.60
2022-12-16T19:34:50.246Z,92.70
2022-12-16T19:37:35.617Z,92.80
2022-12-16T19:40:21.088Z,92.90
2022-12-16T19:43:06.608Z,92.90
2022-12-16T19:45:52.185Z,93.00
2022-12-16T19:48:41.362Z,93.10
2022-12-16T19:51:26.756Z,93.10
2022-12-16T19:54:12.080Z,93.10
2022-12-16T19:56:57.556Z,93.10
2022-12-16T19:59:42.875Z,93.30
2022-12-16T20:02:30.605Z,93.00
2022-12-16T20:05:16.318Z,92.90
2022-12-16T20:08:01.619Z,92.80
2022-12-16T20:10:47.043Z,92.80
2022-12-16T20:13:32.567Z,92.70
2022-12-16T20:16:25.471Z,92.70
2022-12-16T20:19:10.828Z,92.60
2022-12-16T20:21:57.052Z,92.60
2022-12-16T20:24:44.081Z,92.50
2022-12-16T20:27:30.031Z,92.50
2022-12-16T20:30:16.536Z,92.40
2022-12-16T20:33:01.936Z,92.40
2022-12-16T20:35:47.356Z,92.30
2022-12-16T20:38:32.788Z,92.30
2022-12-16T20:41:39.434Z,92.30
2022-12-16T20:44:24.807Z,92.20
2022-12-16T20:47:09.680Z,92.20
2022-12-16T20:49:54.937Z,92.20
2022-12-16T20:52:41.083Z,92.10
2022-12-16T20:55:26.677Z,92.10
2022-12-16T20:58:12.073Z,92.10
2022-12-16T21:00:57.591Z,92.00
2022-12-16T21:03:43.106Z,92.00
2022-12-16T21:06:29.233Z,92.00
2022-12-16T21:09:14.650Z,92.00
2022-12-16T21:11:59.914Z,91.90
2022-12-16T21:14:45.405Z,91.90
2022-12-16T21:17:30.759Z,91.90
2022-12-16T21:20:16.129Z,91.90
2022-12-16T21:23:01.461Z,91.90
2022-12-16T21:25:46.788Z,91.80
2022-12-16T21:28:32.078Z,91.80
2022-12-16T21:31:17.634Z,91.80
2022-12-16T21:34:02.936Z,91.80
2022-12-16T21:36:48.394Z,91.70
2022-12-16T21:39:33.651Z,91.70
2022-12-16T21:42:19.010Z,91.70
2022-12-16T21:45:04.476Z,91.70
2022-12-16T21:47:49.969Z,91.70
2022-12-16T21:50:35.167Z,91.70
2022-12-16T21:53:20.542Z,91.70
2022-12-16T21:56:12.142Z,91.70
2022-12-16T21:58:57.561Z,92.00
2022-12-16T22:01:43.310Z,91.70
2022-12-16T22:04:29.054Z,91.60
2022-12-16T22:07:14.632Z,91.60
2022-12-16T22:10:00.261Z,91.60
2022-12-16T22:12:45.615Z,91.60
2022-12-16T22:15:31.218Z,91.60
2022-12-16T22:18:16.664Z,91.50
2022-12-16T22:21:02.038Z,91.50
2022-12-16T22:23:50.440Z,91.50
2022-12-16T22:26:35.606Z,91.50
2022-12-16T22:29:20.977Z,91.50
2022-12-16T22:32:06.422Z,91.50
2022-12-16T22:34:51.572Z,91.50
2022-12-16T22:37:37.466Z,91.40
2022-12-16T22:40:22.909Z,91.40
2022-12-16T22:43:08.346Z,91.40
2022-12-16T22:45:53.783Z,91.40
2022-12-16T22:48:41.571Z,91.40
2022-12-16T22:51:33.171Z,91.40
2022-12-16T22:54:19.067Z,91.40
2022-12-16T22:57:04.436Z,91.70
2022-12-16T22:59:49.720Z,91.40
2022-12-16T23:02:34.980Z,91.40
2022-12-16T23:08:25.157Z,91.40
2022-12-16T23:11:14.917Z,91.40
2022-12-16T23:14:00.351Z,91.30
2022-12-16T23:16:45.614Z,91.40
2022-12-16T23:19:31.042Z,91.30
2022-12-16T23:22:16.412Z,91.30
2022-12-16T23:25:01.646Z,91.30
2022-12-16T23:27:47.025Z,91.30
2022-12-16T23:30:32.290Z,91.30
2022-12-16T23:33:18.714Z,91.30
2022-12-16T23:36:04.132Z,91.20
2022-12-16T23:38:49.875Z,91.20
2022-12-16T23:41:35.099Z,91.20
2022-12-16T23:44:20.376Z,91.20
2022-12-16T23:47:05.863Z,91.20
2022-12-16T23:49:51.213Z,91.20
2022-12-16T23:52:37.167Z,91.20
2022-12-16T23:55:22.551Z,91.20
2022-12-16T23:58:16.974Z,91.20
